Time;durP1;ratioP1;P1;durP2;ratioP2;P2;SDS_P1;SDS_P2;PMS_P1;PMS_P2;Temp;Humidity;BMP_temperature;BMP_pressure;BME280_temperature;BME280_humidity;BME280_pressure;Samples;Min_cycle;Max_cycle;Signal;HPM_P1;HPM_P2
2022/12/22 03:25:50;;;;;;;8.98;8.07;;;;;;;10.58;100.00;100117.44;5133017;29;20039;-72
2022/12/22 03:28:27;;;;;;;14.20;7.93;;;;;;;10.56;100.00;100102.81;5134757;29;20046;-72
2022/12/22 03:31:02;;;;;;;209.48;18.73;;;;;;;10.50;100.00;100106.06;5134466;29;20027;-72
2022/12/22 03:33:33;;;;;;;8.45;6.93;;;;;;;10.46;100.00;100098.50;5133011;29;20066;-72
2022/12/22 03:36:06;;;;;;;13.38;6.95;;;;;;;10.42;100.00;100101.56;5133945;29;20489;-71
2022/12/22 03:38:37;;;;;;;11.88;7.65;;;;;;;10.39;100.00;100099.22;5133571;29;20036;-72
2022/12/22 03:46:28;;;;;;;8.93;7.38;;;;;;;10.39;100.00;100094.00;5134569;29;20086;-72
2022/12/22 03:46:49;;;;;;;7.53;6.82;;;;;;;10.38;100.00;100089.69;5133568;29;20074;-72
2022/12/22 03:49:21;;;;;;;42.45;10.25;;;;;;;10.37;100.00;100086.25;5134018;29;20058;-73
2022/12/22 03:51:53;;;;;;;12.50;8.20;;;;;;;10.34;100.00;100086.59;5131645;29;20074;-73
2022/12/22 03:54:24;;;;;;;37.00;9.55;;;;;;;10.33;100.00;100090.16;5135337;29;20035;-73
2022/12/22 03:56:56;;;;;;;37.78;10.55;;;;;;;10.32;100.00;100091.13;5134002;29;20110;-73
2022/12/22 03:59:27;;;;;;;141.15;16.70;;;;;;;10.31;100.00;100086.88;5133586;29;20031;-72
2022/12/22 04:01:58;;;;;;;21.80;8.90;;;;;;;10.28;100.00;100079.31;5132485;29;20031;-73
2022/12/22 04:04:30;;;;;;;23.35;8.73;;;;;;;10.26;100.00;100070.75;5134398;29;20527;-73
2022/12/22 04:07:01;;;;;;;21.70;8.50;;;;;;;10.27;100.00;100076.84;5134305;29;20024;-73
2022/12/22 04:09:32;;;;;;;19.55;8.50;;;;;;;10.26;100.00;100075.19;5130688;29;20098;-73
2022/12/22 04:14:54;;;;;;;36.85;9.15;;;;;;;10.20;100.00;100077.38;5132782;29;20019;-72
2022/12/22 04:17:25;;;;;;;85.15;13.93;;;;;;;10.23;100.00;100079.72;5128659;29;20497;-73
2022/12/22 04:19:56;;;;;;;14.13;8.00;;;;;;;10.24;100.00;100075.31;5133922;29;20023;-72
2022/12/22 04:22:27;;;;;;;41.13;10.95;;;;;;;10.25;100.00;100076.97;5133547;29;20028;-72
2022/12/22 04:24:59;;;;;;;13.10;8.63;;;;;;;10.26;100.00;100078.59;5128265;29;20020;-73
2022/12/22 04:27:30;;;;;;;21.30;8.18;;;;;;;10.27;100.00;100075.03;5134136;29;20035;-73
2022/12/22 04:30:03;;;;;;;14.07;8.68;;;;;;;10.31;100.00;100078.19;5132848;29;20032;-72
2022/12/22 04:32:34;;;;;;;26.02;9.07;;;;;;;10.30;100.00;100084.38;5132087;29;20032;-73
2022/12/22 04:35:07;;;;;;;39.58;8.77;;;;;;;10.26;100.00;100080.41;5134333;29;20024;-72
2022/12/22 04:37:38;;;;;;;16.17;7.10;;;;;;;10.31;100.00;100088.66;5132661;29;20219;-72
2022/12/22 04:40:10;;;;;;;9.27;7.50;;;;;;;10.28;100.00;100086.34;5132242;29;20103;-73
2022/12/22 04:42:41;;;;;;;11.45;8.18;;;;;;;10.30;100.00;100093.06;5131926;29;20032;-73
2022/12/22 04:45:12;;;;;;;10.48;8.52;;;;;;;10.27;100.00;100095.16;5132628;29;20036;-72
2022/12/22 04:47:43;;;;;;;19.77;7.82;;;;;;;10.25;100.00;100092.69;5131302;29;20019;-73
2022/12/22 04:50:15;;;;;;;17.58;8.65;;;;;;;10.19;100.00;100087.97;5132635;29;20043;-73
2022/12/22 04:52:46;;;;;;;29.92;7.78;;;;;;;10.23;100.00;100090.19;5132631;29;20110;-73
2022/12/22 04:55:17;;;;;;;21.60;6.75;;;;;;;10.22;100.00;100090.31;5133617;29;20027;-73
2022/12/22 04:57:49;;;;;;;21.85;6.88;;;;;;;10.24;100.00;100091.84;5129810;29;20067;-72
2022/12/22 05:00:20;;;;;;;28.25;7.53;;;;;;;10.23;100.00;100089.38;5131558;29;20027;-72
2022/12/22 05:02:52;;;;;;;29.67;8.00;;;;;;;10.22;100.00;100072.00;5133553;29;20486;-72
2022/12/22 05:05:23;;;;;;;19.90;8.43;;;;;;;10.21;100.00;100080.81;5132455;29;20430;-72
2022/12/22 05:07:54;;;;;;;26.20;8.73;;;;;;;10.20;100.00;100074.78;5132669;29;20057;-73
2022/12/22 05:10:26;;;;;;;9.82;7.55;;;;;;;10.21;100.00;100073.78;5131656;28;20043;-72
2022/12/22 05:12:57;;;;;;;20.98;8.07;;;;;;;10.19;100.00;100080.97;5132810;29;20023;-72
2022/12/22 05:15:31;;;;;;;19.45;7.85;;;;;;;10.27;100.00;100079.47;5132459;29;20028;-73
2022/12/22 05:18:03;;;;;;;8.18;7.38;;;;;;;10.23;100.00;100084.94;5132650;29;20476;-72
2022/12/22 05:20:34;;;;;;;120.22;12.27;;;;;;;10.13;100.00;100084.19;5139481;29;20118;-73
2022/12/22 05:23:06;;;;;;;129.95;13.98;;;;;;;10.05;100.00;100094.56;5138968;29;20027;-73
2022/12/22 05:25:37;;;;;;;174.65;12.40;;;;;;;9.98;100.00;100102.16;5139767;29;20050;-72
2022/12/22 05:28:08;;;;;;;114.75;9.23;;;;;;;9.99;100.00;100102.97;5137795;29;20019;-73
2022/12/22 05:30:40;;;;;;;57.53;7.90;;;;;;;9.99;100.00;100097.72;5135660;29;20146;-73
2022/12/22 05:33:11;;;;;;;65.18;7.57;;;;;;;10.00;100.00;100104.63;5140599;29;20023;-73
2022/12/22 05:35:42;;;;;;;75.13;7.95;;;;;;;10.01;100.00;100105.47;5139546;29;20122;-73
2022/12/22 05:38:13;;;;;;;50.60;7.05;;;;;;;10.01;100.00;100108.06;5139117;29;20043;-72
2022/12/22 05:40:45;;;;;;;54.03;7.47;;;;;;;10.04;100.00;100110.38;5136152;29;20094;-73
2022/12/22 05:43:16;;;;;;;90.03;8.98;;;;;;;10.06;100.00;100108.47;5140497;29;20020;-72
2022/12/22 05:45:48;;;;;;;71.63;9.00;;;;;;;10.04;100.00;100106.00;5140035;29;20465;-72
2022/12/22 05:48:19;;;;;;;93.78;9.05;;;;;;;10.04;100.00;100111.22;5139834;29;20035;-72
2022/12/22 05:50:50;;;;;;;51.88;8.05;;;;;;;10.08;100.00;100114.38;5137222;29;20046;-72
2022/12/22 05:53:21;;;;;;;35.22;7.03;;;;;;;10.08;100.00;100114.38;5139230;29;20024;-72
2022/12/22 05:55:53;;;;;;;74.20;9.45;;;;;;;10.05;100.00;100119.91;5137027;29;20034;-72
2022/12/22 05:58:24;;;;;;;52.65;8.48;;;;;;;10.05;100.00;100139.03;5138050;29;20034;-72
2022/12/22 06:00:57;;;;;;;71.38;8.80;;;;;;;10.05;100.00;100149.50;5135672;29;20053;-72
2022/12/22 06:03:29;;;;;;;86.68;9.27;;;;;;;10.02;100.00;100155.03;5140111;29;20051;-72
2022/12/22 06:06:00;;;;;;;74.50;9.18;;;;;;;10.01;100.00;100160.41;5122400;29;20401;-73
2022/12/22 06:08:32;;;;;;;67.75;8.98;;;;;;;10.01;100.00;100156.00;5138092;29;20036;-72
2022/12/22 06:11:03;;;;;;;33.35;8.32;;;;;;;10.06;100.00;100163.41;5138279;29;20098;-72
2022/12/22 06:13:34;;;;;;;30.05;8.73;;;;;;;10.08;100.00;100169.34;5136621;29;20070;-72
2022/12/22 06:16:06;;;;;;;21.52;9.25;;;;;;;10.08;100.00;100159.69;5138763;29;20416;-72
2022/12/22 06:18:37;;;;;;;16.33;9.43;;;;;;;10.11;100.00;100172.47;5132559;29;20027;-72
2022/12/22 06:21:08;;;;;;;11.50;9.73;;;;;;;10.05;100.00;100167.81;5122091;29;20496;-72
2022/12/22 06:23:40;;;;;;;12.65;11.10;;;;;;;10.16;100.00;100182.53;5137069;29;20020;-72
2022/12/22 06:26:11;;;;;;;14.88;13.02;;;;;;;10.15;100.00;100191.31;5136336;29;20034;-72
2022/12/22 06:28:42;;;;;;;15.60;12.82;;;;;;;10.10;100.00;100193.56;5126504;29;20035;-72
2022/12/22 06:31:13;;;;;;;16.65;13.70;;;;;;;10.12;100.00;100194.25;5126011;29;20023;-72
2022/12/22 06:33:45;;;;;;;18.45;15.60;;;;;;;10.11;100.00;100200.44;5126884;29;20031;-72
2022/12/22 06:36:16;;;;;;;21.73;16.90;;;;;;;10.08;100.00;100205.97;5132579;29;20485;-72
2022/12/22 06:38:48;;;;;;;22.95;17.95;;;;;;;10.14;100.00;100214.06;5132564;29;20115;-72
2022/12/22 06:43:07;;;;;;;23.67;19.00;;;;;;;10.17;100.00;100218.19;5127119;29;20372;-72
2022/12/22 06:44:11;;;;;;;24.73;17.83;;;;;;;10.15;100.00;100212.28;5127956;29;20091;-72
2022/12/22 06:46:42;;;;;;;30.48;20.42;;;;;;;10.20;100.00;100217.91;5133399;29;20396;-72
2022/12/22 06:49:13;;;;;;;28.17;19.33;;;;;;;10.23;100.00;100220.25;5135306;29;20032;-72
2022/12/22 06:51:45;;;;;;;28.67;19.75;;;;;;;10.20;100.00;100221.34;5133682;29;20063;-73
2022/12/22 06:54:16;;;;;;;30.02;20.17;;;;;;;10.23;100.00;100236.78;5131151;29;20397;-72
2022/12/22 06:56:47;;;;;;;27.30;18.85;;;;;;;10.28;100.00;100239.00;5127908;29;20043;-72
2022/12/22 06:59:19;;;;;;;30.33;19.63;;;;;;;10.26;100.00;100246.16;5131166;29;20091;-72
2022/12/22 07:01:50;;;;;;;28.80;19.23;;;;;;;10.27;100.00;100245.22;5126708;29;20024;-72
2022/12/22 07:04:22;;;;;;;26.17;19.58;;;;;;;10.28;100.00;100248.66;5133015;29;20032;-72
2022/12/22 07:06:53;;;;;;;26.63;18.25;;;;;;;10.28;100.00;100265.19;5133754;29;20038;-72
2022/12/22 07:09:24;;;;;;;24.85;18.08;;;;;;;10.26;100.00;100261.88;5128824;29;20477;-72
2022/12/22 07:11:55;;;;;;;25.80;19.13;;;;;;;10.27;100.00;100279.25;5130974;29;20513;-72
2022/12/22 07:14:27;;;;;;;25.88;19.55;;;;;;;10.23;100.00;100285.72;5131572;29;20556;-72
2022/12/22 07:16:58;;;;;;;25.38;18.27;;;;;;;10.23;100.00;100294.38;5133357;29;20492;-72
2022/12/22 07:19:29;;;;;;;25.88;19.83;;;;;;;10.22;100.00;100287.47;5135384;29;20478;-72
2022/12/22 07:22:01;;;;;;;29.15;19.73;;;;;;;10.22;100.00;100274.38;5132610;29;20039;-72
2022/12/22 07:24:32;;;;;;;23.88;18.50;;;;;;;10.27;100.00;100279.25;5134293;29;20500;-72
2022/12/22 07:27:03;;;;;;;25.48;19.40;;;;;;;10.24;100.00;100285.56;5130430;29;20496;-73
2022/12/22 07:29:35;;;;;;;26.65;19.77;;;;;;;10.18;100.00;100275.63;5132245;29;20033;-72
2022/12/22 07:32:07;;;;;;;26.70;18.90;;;;;;;10.13;100.00;100275.25;5133147;29;20027;-72
2022/12/22 07:34:38;;;;;;;30.83;20.15;;;;;;;10.11;100.00;100282.41;5130589;29;20031;-72
2022/12/22 07:37:12;;;;;;;29.00;20.95;;;;;;;10.13;100.00;100287.50;5131350;29;20126;-73
2022/12/22 07:39:43;;;;;;;31.83;21.35;;;;;;;10.12;100.00;100285.88;5132735;29;20582;-72
2022/12/22 07:45:05;;;;;;;29.98;20.88;;;;;;;10.10;100.00;100300.88;5130468;29;20035;-72
2022/12/22 07:47:36;;;;;;;27.77;21.08;;;;;;;10.06;100.00;100310.78;5130473;29;20031;-73
2022/12/22 07:50:31;;;;;;;33.13;21.40;;;;;;;10.09;100.00;100307.09;5134696;29;20504;-73
2022/12/22 07:53:03;;;;;;;30.77;21.08;;;;;;;10.05;100.00;100321.41;5135160;29;20035;-72
2022/12/22 07:55:35;;;;;;;32.50;22.42;;;;;;;10.08;100.00;100329.00;5133375;29;20091;-72
2022/12/22 07:58:06;;;;;;;30.90;21.90;;;;;;;10.02;100.00;100332.97;5131085;29;20346;-72
2022/12/22 08:00:38;;;;;;;34.72;24.02;;;;;;;10.09;100.00;100354.19;5134080;29;20042;-73
2022/12/22 08:03:09;;;;;;;34.50;23.60;;;;;;;10.02;100.00;100363.56;5132482;29;20024;-72
2022/12/22 08:05:40;;;;;;;37.55;23.80;;;;;;;10.01;100.00;100367.16;5133795;29;20031;-72
2022/12/22 08:08:11;;;;;;;34.45;23.10;;;;;;;10.03;100.00;100376.50;5128670;29;20027;-72
2022/12/22 08:10:43;;;;;;;39.38;26.52;;;;;;;9.98;100.00;100381.31;5134484;28;20059;-71
2022/12/22 08:13:14;;;;;;;38.22;24.55;;;;;;;9.98;100.00;100386.56;5132325;29;20078;-71
2022/12/22 08:15:45;;;;;;;37.40;24.80;;;;;;;9.96;100.00;100385.84;5131249;29;20024;-71
2022/12/22 08:18:16;;;;;;;36.33;22.65;;;;;;;9.98;100.00;100384.75;5131522;29;20149;-71
2022/12/22 08:20:51;;;;;;;34.72;24.45;;;;;;;10.02;100.00;100390.56;5132305;29;21064;-71
2022/12/22 08:23:22;;;;;;;37.40;24.52;;;;;;;9.93;100.00;100386.16;5130909;29;20036;-71
2022/12/22 08:26:01;;;;;;;36.55;24.55;;;;;;;9.99;100.00;100396.06;5133983;29;20028;-71
2022/12/22 08:28:37;;;;;;;40.00;24.08;;;;;;;9.98;100.00;100394.41;5129613;29;20114;-71
2022/12/22 08:31:09;;;;;;;38.13;23.98;;;;;;;9.90;100.00;100397.72;5132635;29;20078;-71
2022/12/22 08:33:40;;;;;;;34.20;22.67;;;;;;;9.87;100.00;100407.63;5131454;29;20047;-71
2022/12/22 08:36:11;;;;;;;35.30;22.15;;;;;;;9.83;100.00;100417.53;5132755;29;20121;-71
2022/12/22 08:38:43;;;;;;;32.53;21.60;;;;;;;9.81;100.00;100422.09;5133628;29;20043;-71
2022/12/22 08:41:48;;;;;;;34.10;22.25;;;;;;;9.74;100.00;100427.03;5132903;29;20027;-71
2022/12/22 08:44:07;;;;;;;36.75;22.90;;;;;;;9.80;100.00;100448.38;5129286;29;20039;-71
2022/12/22 08:46:38;;;;;;;33.70;21.33;;;;;;;9.81;100.00;100458.72;5125228;29;20032;-72
2022/12/22 08:49:10;;;;;;;33.33;22.52;;;;;;;9.82;100.00;100468.22;5130388;29;20024;-70
2022/12/22 08:51:42;;;;;;;36.33;23.15;;;;;;;9.81;100.00;100484.88;5130114;29;20032;-71
2022/12/22 08:54:14;;;;;;;38.78;24.10;;;;;;;9.81;100.00;100487.50;5132735;29;20023;-71
2022/12/22 08:56:45;;;;;;;39.13;24.38;;;;;;;9.80;100.00;100477.16;5131422;29;20032;-71
2022/12/22 08:59:17;;;;;;;39.63;24.60;;;;;;;9.84;100.00;100468.88;5132576;29;20035;-71
2022/12/22 09:01:49;;;;;;;34.47;23.55;;;;;;;9.78;100.00;100476.47;5131605;29;20131;-71
2022/12/22 09:04:23;;;;;;;36.08;24.45;;;;;;;9.79;100.00;100489.41;5130436;29;20019;-71
2022/12/22 09:06:54;;;;;;;39.03;23.85;;;;;;;9.69;100.00;100491.97;5130107;29;20396;-71
2022/12/22 09:09:25;;;;;;;39.90;23.67;;;;;;;9.68;100.00;100500.78;5132849;29;20037;-71
2022/12/22 09:11:57;;;;;;;37.63;23.23;;;;;;;9.67;100.00;100493.09;5130655;29;20059;-71
2022/12/22 09:14:29;;;;;;;42.15;23.98;;;;;;;9.60;100.00;100490.16;5129902;29;20106;-71
2022/12/22 09:17:00;;;;;;;36.58;23.20;;;;;;;9.58;100.00;100493.88;5129740;29;20619;-71
2022/12/22 09:19:31;;;;;;;40.38;23.75;;;;;;;9.56;100.00;100493.19;5132160;29;20118;-71
2022/12/22 09:22:03;;;;;;;37.42;22.83;;;;;;;9.52;100.00;100499.66;5132024;29;20067;-71
2022/12/22 09:24:34;;;;;;;37.35;23.23;;;;;;;9.50;100.00;100500.59;5129492;29;20067;-71
2022/12/22 09:27:07;;;;;;;38.80;24.13;;;;;;;9.49;100.00;100506.78;5128680;29;20028;-71
2022/12/22 09:29:40;;;;;;;38.55;23.23;;;;;;;9.50;100.00;100515.44;5132242;29;20050;-71
2022/12/22 09:32:11;;;;;;;37.63;23.45;;;;;;;9.47;100.00;100511.31;5130239;29;20024;-71
2022/12/22 09:34:42;;;;;;;36.97;23.45;;;;;;;9.50;100.00;100515.44;5124790;29;20552;-71
2022/12/22 09:37:14;;;;;;;38.10;23.40;;;;;;;9.52;100.00;100528.41;5130879;29;20489;-71
2022/12/22 09:39:47;;;;;;;36.00;24.65;;;;;;;9.54;100.00;100519.47;5130075;29;20043;-71
2022/12/22 09:42:19;;;;;;;39.92;24.45;;;;;;;9.60;100.00;100520.72;5130882;29;20027;-71
2022/12/22 09:44:51;;;;;;;38.88;26.05;;;;;;;9.65;100.00;100532.44;5129674;29;20036;-71
2022/12/22 09:47:36;;;;;;;38.53;25.38;;;;;;;9.82;100.00;100543.25;5132198;29;20034;-70
2022/12/22 09:50:15;;;;;;;40.50;24.90;;;;;;;9.73;100.00;100539.63;5130420;29;20031;-71
2022/12/22 09:52:51;;;;;;;38.10;25.95;;;;;;;9.63;100.00;100538.78;5130450;29;20414;-71
2022/12/22 09:55:30;;;;;;;40.92;26.80;;;;;;;9.51;100.00;100543.28;5131017;29;20118;-71
2022/12/22 09:58:02;;;;;;;39.88;26.30;;;;;;;9.51;100.00;100545.91;5131128;29;20067;-70
2022/12/22 10:00:35;;;;;;;37.92;25.42;;;;;;;9.60;100.00;100542.47;5130081;29;20039;-71
2022/12/22 10:03:12;;;;;;;;;;;;;;;10.12;100.00;100553.69;5133208;29;20024;-71
2022/12/22 10:06:07;;;;;;;34.42;23.13;;;;;;;9.87;100.00;100557.59;5134391;29;19926;-71
2022/12/22 10:08:42;;;;;;;38.65;24.13;;;;;;;9.73;100.00;100563.16;5134551;29;20743;-71
2022/12/22 10:11:16;;;;;;;37.67;23.63;;;;;;;9.76;100.00;100557.69;5131052;29;20421;-71
2022/12/22 10:13:47;;;;;;;36.03;21.85;;;;;;;9.74;100.00;100564.84;5135611;29;20058;-71
2022/12/22 10:16:26;;;;;;;33.63;21.58;;;;;;;9.87;100.00;100580.31;5134131;29;20036;-71
2022/12/22 10:19:06;;;;;;;27.20;18.70;;;;;;;9.84;100.00;100576.16;5131428;29;20043;-71
2022/12/22 10:21:38;;;;;;;29.08;17.88;;;;;;;9.70;100.00;100571.31;5135675;29;20036;-71
2022/12/22 10:24:16;;;;;;;29.35;18.17;;;;;;;9.75;100.00;100563.88;5136824;29;20030;-71
2022/12/22 10:26:49;;;;;;;27.40;16.67;;;;;;;9.67;100.00;100563.72;5131966;29;20034;-71
2022/12/22 10:29:21;;;;;;;24.73;17.02;;;;;;;9.72;100.00;100562.34;5134126;29;20031;-70
2022/12/22 10:32:01;;;;;;;27.23;17.05;;;;;;;9.83;100.00;100571.06;5133477;29;20388;-71
2022/12/22 10:34:33;;;;;;;25.52;16.15;;;;;;;9.69;100.00;100567.00;5127919;29;20040;-71
2022/12/22 10:37:05;;;;;;;27.17;16.02;;;;;;;9.66;100.00;100577.72;5134088;29;20036;-71
2022/12/22 10:39:37;;;;;;;23.17;15.57;;;;;;;9.61;100.00;100572.06;5132723;29;20039;-71
2022/12/22 10:42:12;;;;;;;23.93;15.13;;;;;;;9.65;100.00;100566.44;5132773;29;20519;-71
2022/12/22 10:44:47;;;;;;;22.60;15.30;;;;;;;9.70;100.00;100573.91;5132066;29;20020;-71
2022/12/22 10:47:22;;;;;;;24.52;16.50;;;;;;;9.71;100.00;100572.94;5134240;29;20516;-72
2022/12/22 10:49:56;;;;;;;23.58;15.27;;;;;;;9.67;100.00;100566.34;5130306;29;20070;-71
2022/12/22 10:52:30;;;;;;;25.75;16.88;;;;;;;9.70;100.00;100579.97;5131897;29;20032;-71
2022/12/22 10:55:13;;;;;;;27.60;16.05;;;;;;;9.89;100.00;100591.50;5133006;29;20160;-69
2022/12/22 10:57:45;;;;;;;27.33;15.40;;;;;;;9.75;100.00;100590.88;5128646;29;20035;-70
2022/12/22 11:00:27;;;;;;;23.10;16.13;;;;;;;9.88;100.00;100584.56;5130250;29;20054;-70
2022/12/22 11:03:00;;;;;;;27.88;15.20;;;;;;;9.83;100.00;100590.22;5133149;29;20139;-70
2022/12/22 11:05:32;;;;;;;;;;;;;;;10.39;100.00;100592.34;5132937;29;20323;-70
2022/12/22 11:08:19;;;;;;;20.92;13.63;;;;;;;10.10;100.00;100597.47;5130141;29;19918;-70
2022/12/22 11:11:06;;;;;;;23.88;13.50;;;;;;;9.90;100.00;100598.38;5133211;29;20051;-71
2022/12/22 11:14:05;;;;;;;23.52;13.60;;;;;;;10.10;100.00;100601.88;5133540;29;20044;-71
2022/12/22 11:16:42;;;;;;;23.52;16.20;;;;;;;9.95;100.00;100602.22;5130749;29;20038;-70
2022/12/22 11:19:36;;;;;;;26.80;18.63;;;;;;;10.02;100.00;100605.16;5133726;29;20070;-71
2022/12/22 11:22:25;;;;;;;29.20;22.27;;;;;;;10.03;100.00;100596.34;5134660;29;20481;-70
2022/12/22 11:25:04;;;;;;;30.73;21.42;;;;;;;10.00;100.00;100599.25;5130686;29;20028;-71
2022/12/22 11:27:56;;;;;;;29.60;22.20;;;;;;;9.98;100.00;100609.00;5133473;29;20074;-71
2022/12/22 11:30:58;;;;;;;27.98;21.17;;;;;;;10.03;100.00;100612.03;5135195;29;20035;-70
2022/12/22 11:33:55;;;;;;;32.50;21.85;;;;;;;10.03;100.00;100611.22;5130336;29;20032;-71
2022/12/22 11:36:44;;;;;;;29.55;21.02;;;;;;;10.04;100.00;100620.72;5122340;29;20142;-71
2022/12/22 11:39:27;;;;;;;31.30;22.80;;;;;;;10.02;100.00;100610.41;5135237;29;20019;-70
2022/12/22 11:42:17;;;;;;;27.77;21.40;;;;;;;10.08;100.00;100614.28;5129959;29;20028;-70
2022/12/22 11:45:07;;;;;;;29.40;21.70;;;;;;;10.05;100.00;100609.31;5135179;29;20035;-71
2022/12/22 11:47:54;;;;;;;27.95;21.77;;;;;;;10.15;100.00;100624.09;5131881;29;20043;-70
2022/12/22 11:50:40;;;;;;;29.50;23.00;;;;;;;10.25;100.00;100616.28;5127940;29;20475;-70
2022/12/22 11:53:30;;;;;;;27.88;22.02;;;;;;;10.37;100.00;100617.81;5133186;29;20031;-70
2022/12/22 11:56:25;;;;;;;28.52;21.85;;;;;;;10.38;100.00;100608.19;5131390;29;20039;-71
2022/12/22 11:59:09;;;;;;;27.83;20.75;;;;;;;10.20;100.00;100610.59;5111497;29;20027;-71
2022/12/22 12:02:07;;;;;;;25.92;20.45;;;;;;;10.31;100.00;100604.47;5125675;29;20035;-70
2022/12/22 12:04:59;;;;;;;24.65;18.92;;;;;;;10.15;100.00;100597.91;5109014;29;20040;-70
2022/12/22 12:07:39;;;;;;;24.63;16.70;;;;;;;10.21;100.00;100594.75;5131350;29;20039;-71
2022/12/22 12:10:21;;;;;;;24.38;17.42;;;;;;;10.21;100.00;100605.22;5130815;29;20103;-71
2022/12/22 12:13:14;;;;;;;24.48;17.48;;;;;;;10.16;100.00;100601.34;5132564;29;20444;-70
2022/12/22 12:15:52;;;;;;;20.67;16.77;;;;;;;10.08;100.00;100591.56;5131817;29;20056;-71
2022/12/22 12:18:38;;;;;;;19.40;15.32;;;;;;;10.21;100.00;100581.66;5134473;29;20031;-71
2022/12/22 12:21:23;;;;;;;22.52;15.13;;;;;;;10.23;100.00;100577.13;5130332;29;20042;-71
2022/12/22 12:24:11;;;;;;;18.67;14.60;;;;;;;10.23;100.00;100561.41;5131433;29;20047;-70
2022/12/22 12:26:54;;;;;;;19.67;15.18;;;;;;;10.24;100.00;100563.06;5133127;29;20035;-71
2022/12/22 12:30:09;;;;;;;21.25;14.73;;;;;;;10.52;100.00;100562.44;5128664;29;20083;-70
2022/12/22 12:33:02;;;;;;;20.63;15.20;;;;;;;10.44;100.00;100555.28;5117995;29;20134;-71
2022/12/22 12:35:42;;;;;;;18.33;15.18;;;;;;;10.30;100.00;100560.88;5127704;29;20066;-71
2022/12/22 12:38:35;;;;;;;19.75;15.27;;;;;;;10.30;100.00;100553.03;5113728;29;20565;-71
2022/12/22 12:41:16;;;;;;;19.70;13.95;;;;;;;10.40;100.00;100557.34;5130835;29;20027;-71
2022/12/22 12:43:48;;;;;;;18.77;13.88;;;;;;;10.25;100.00;100556.06;5110750;29;20596;-71
2022/12/22 12:46:44;;;;;;;16.25;13.57;;;;;;;10.48;100.00;100554.03;5129014;29;20028;-70
2022/12/22 12:49:34;;;;;;;19.88;14.00;;;;;;;10.46;100.00;100562.03;5128316;29;20506;-71
2022/12/22 12:52:06;;;;;;;18.92;14.30;;;;;;;10.20;100.00;100566.91;5133698;29;20075;-71
2022/12/22 12:54:42;;;;;;;18.73;14.25;;;;;;;10.20;100.00;100559.06;5115282;29;20083;-71
2022/12/22 12:57:24;;;;;;;18.00;14.70;;;;;;;10.30;100.00;100558.28;5130818;29;20035;-71
2022/12/22 12:59:58;;;;;;;20.40;15.35;;;;;;;10.24;100.00;100544.75;5131982;29;20083;-71
2022/12/22 13:02:31;;;;;;;19.70;15.60;;;;;;;10.30;100.00;100553.84;5126579;29;20053;-70
2022/12/22 13:05:11;;;;;;;20.73;16.30;;;;;;;10.48;100.00;100560.09;5132725;29;20032;-71
2022/12/22 13:08:07;;;;;;;18.27;16.25;;;;;;;10.64;100.00;100551.69;5130466;29;20051;-71
2022/12/22 13:10:44;;;;;;;21.67;17.80;;;;;;;10.50;100.00;100551.28;5128918;29;20868;-71
2022/12/22 13:13:21;;;;;;;21.48;17.10;;;;;;;10.58;100.00;100556.66;5131436;29;20051;-71
2022/12/22 13:15:58;;;;;;;22.65;18.30;;;;;;;10.55;100.00;100551.69;5130801;29;20055;-70
2022/12/22 13:18:32;;;;;;;19.85;17.02;;;;;;;10.46;100.00;100555.97;5125379;29;20071;-70
2022/12/22 13:21:04;;;;;;;20.85;18.27;;;;;;;10.36;100.00;100549.88;5130571;29;20038;-71
2022/12/22 13:23:43;;;;;;;21.73;17.83;;;;;;;10.31;100.00;100558.16;5128972;29;20425;-70
2022/12/22 13:26:20;;;;;;;19.58;15.82;;;;;;;10.18;100.00;100554.91;5132247;29;20030;-71
2022/12/22 13:28:57;;;;;;;18.80;14.60;;;;;;;10.15;100.00;100548.19;5130266;29;20043;-71
2022/12/22 13:31:41;;;;;;;14.38;12.30;;;;;;;10.24;100.00;100554.38;5132962;29;20027;-71
2022/12/22 13:34:45;;;;;;;14.52;12.38;;;;;;;10.26;100.00;100549.84;5124225;29;20043;-71
2022/12/22 13:37:22;;;;;;;18.55;11.52;;;;;;;10.20;100.00;100545.16;5132704;29;20175;-71
2022/12/22 13:40:16;;;;;;;12.88;10.75;;;;;;;10.34;100.00;100544.81;5134125;29;20490;-71
2022/12/22 13:43:12;;;;;;;14.02;10.88;;;;;;;10.36;100.00;100529.75;5132938;29;20094;-70
2022/12/22 13:45:59;;;;;;;13.00;10.75;;;;;;;10.21;100.00;100528.47;5123715;29;20040;-70
2022/12/22 13:48:37;;;;;;;12.40;10.45;;;;;;;10.20;100.00;100521.59;5136350;29;20035;-71
2022/12/22 13:51:22;;;;;;;12.60;10.65;;;;;;;10.32;100.00;100525.75;5134336;29;20036;-70
2022/12/22 13:53:58;;;;;;;13.63;10.68;;;;;;;10.12;100.00;100510.97;5133227;29;20479;-69
2022/12/22 13:56:39;;;;;;;17.25;11.40;;;;;;;10.21;100.00;100518.81;5104589;29;20038;-71
2022/12/22 13:59:23;;;;;;;13.60;11.57;;;;;;;10.18;100.00;100513.03;5134416;29;20114;-71
2022/12/22 14:02:02;;;;;;;;;;;;;;;10.69;100.00;100509.38;5133474;29;20717;-71
2022/12/22 14:04:38;;;;;;;14.15;10.43;;;;;;;10.17;100.00;100509.59;5136813;29;19942;-71
2022/12/22 14:07:17;;;;;;;12.38;10.43;;;;;;;10.18;100.00;100503.38;5134670;29;20136;-71
2022/12/22 14:09:53;;;;;;;12.27;10.88;;;;;;;10.11;100.00;100504.06;5132143;29;20051;-73
2022/12/22 14:12:28;;;;;;;14.10;10.85;;;;;;;10.11;100.00;100507.50;5130385;23;20063;-72
2022/12/22 14:15:01;;;;;;;11.88;10.27;;;;;;;10.03;100.00;100499.50;5107767;29;20044;-72
2022/12/22 14:17:36;;;;;;;10.02;8.82;;;;;;;10.10;100.00;100505.03;5136175;29;20028;-72
2022/12/22 14:20:31;;;;;;;10.93;9.50;;;;;;;10.26;100.00;100487.03;5134297;29;20548;-72
2022/12/22 14:23:02;;;;;;;11.52;10.02;;;;;;;10.02;100.00;100484.78;5133098;29;20040;-72
2022/12/22 14:25:38;;;;;;;12.03;8.73;;;;;;;10.06;100.00;100477.47;5134108;29;20035;-73
2022/12/22 14:28:42;;;;;;;11.68;9.05;;;;;;;10.27;100.00;100472.16;5135390;29;20275;-73
2022/12/22 14:31:13;;;;;;;;;;;;;;;10.52;100.00;100473.38;5134783;29;20494;-73
2022/12/22 14:34:07;;;;;;;11.43;8.32;;;;;;;10.10;100.00;100450.06;5132175;29;19993;-72
2022/12/22 14:36:44;;;;;;;10.63;9.27;;;;;;;10.00;100.00;100473.63;5133345;29;20044;-74
2022/12/22 14:39:33;;;;;;;10.18;9.18;;;;;;;10.17;100.00;100469.50;5129392;29;20110;-74
2022/12/22 14:42:12;;;;;;;9.52;8.50;;;;;;;10.03;100.00;100467.28;5132278;29;20036;-73
2022/12/22 14:44:45;;;;;;;10.68;9.43;;;;;;;9.87;100.00;100444.25;5111887;29;20114;-73
2022/12/22 14:47:22;;;;;;;9.10;8.20;;;;;;;9.95;100.00;100460.09;5132381;29;20508;-73
2022/12/22 14:50:16;;;;;;;10.43;9.23;;;;;;;10.12;100.00;100458.63;5130825;29;20076;-72
2022/12/22 14:53:03;;;;;;;9.70;8.57;;;;;;;10.02;100.00;100457.78;5131157;29;20039;-72
2022/12/22 14:55:40;;;;;;;11.07;8.38;;;;;;;9.89;100.00;100451.00;5132808;29;20035;-74
2022/12/22 14:58:16;;;;;;;13.23;8.13;;;;;;;9.82;100.00;100447.28;5132247;29;20176;-72
2022/12/22 15:01:11;;;;;;;13.13;8.00;;;;;;;9.96;100.00;100448.66;5131726;29;20042;-72
2022/12/22 15:03:44;;;;;;;9.98;8.15;;;;;;;9.66;100.00;100429.50;5130867;29;20023;-72
2022/12/22 15:06:27;;;;;;;9.43;8.02;;;;;;;9.89;100.00;100443.16;5129542;29;20028;-73
2022/12/22 15:09:01;;;;;;;;;;;;;;;10.28;100.00;100445.84;5126591;28;20063;-71
2022/12/22 15:11:35;;;;;;;10.10;8.20;;;;;;;9.78;100.00;100445.06;5128339;29;20021;-72
2022/12/22 15:14:16;;;;;;;12.52;8.90;;;;;;;9.84;100.00;100437.50;5135260;29;20034;-72
2022/12/22 15:16:48;;;;;;;12.10;8.80;;;;;;;9.69;100.00;100433.59;5134789;29;20035;-72
2022/12/22 15:19:21;;;;;;;13.35;9.23;;;;;;;9.70;100.00;100436.09;5133320;29;20728;-72
2022/12/22 15:21:52;;;;;;;12.07;9.43;;;;;;;9.71;100.00;100429.91;5133098;29;20043;-72